createdAt,value
2023-01-06T00:00:43.973Z,3.77
2023-01-06T00:03:12.252Z,3.77
2023-01-06T00:05:40.431Z,3.75
2023-01-06T00:08:08.429Z,3.78
2023-01-06T00:10:37.915Z,3.81
2023-01-06T00:13:07.213Z,3.81
2023-01-06T00:15:38.052Z,3.85
2023-01-06T00:18:06.205Z,3.82
2023-01-06T00:20:34.688Z,3.85
2023-01-06T00:23:02.673Z,3.87
2023-01-06T00:25:30.857Z,3.88
2023-01-06T00:27:59.066Z,3.87
2023-01-06T00:30:28.415Z,3.89
2023-01-06T00:32:56.936Z,3.91
2023-01-06T00:35:24.951Z,3.91
2023-01-06T00:37:52.927Z,3.94
2023-01-06T00:40:21.016Z,3.94
2023-01-06T00:42:49.015Z,3.94
2023-01-06T00:45:17.345Z,3.94
2023-01-06T00:47:46.689Z,3.92
2023-01-06T00:50:14.819Z,3.98
2023-01-06T00:52:42.994Z,4.01
2023-01-06T00:55:11.387Z,4.02
2023-01-06T00:57:40.776Z,4.06
2023-01-06T01:00:10.483Z,4.05
2023-01-06T01:02:38.616Z,4.09
2023-01-06T01:05:08.779Z,4.12
2023-01-06T01:07:37.086Z,4.12
2023-01-06T01:10:05.644Z,4.10
2023-01-06T01:12:33.599Z,4.16
2023-01-06T01:15:01.825Z,4.19
2023-01-06T01:17:31.379Z,4.20
2023-01-06T01:20:00.967Z,4.20
2023-01-06T01:22:31.936Z,4.22
2023-01-06T01:24:59.913Z,4.28
2023-01-06T01:27:28.186Z,4.30
2023-01-06T01:29:56.163Z,4.33
2023-01-06T01:32:24.206Z,4.35
2023-01-06T01:34:52.164Z,4.36
2023-01-06T01:37:20.210Z,4.40
2023-01-06T01:39:49.720Z,4.39
2023-01-06T01:42:19.586Z,4.43
2023-01-06T01:45:01.981Z,4.43
2023-01-06T01:47:31.705Z,4.40
2023-01-06T01:50:01.582Z,4.43
2023-01-06T01:52:29.732Z,4.42
2023-01-06T01:54:59.222Z,4.39
2023-01-06T01:57:32.603Z,4.38
2023-01-06T02:00:01.456Z,4.33
2023-01-06T02:02:31.234Z,4.30
2023-01-06T02:05:00.246Z,4.33
2023-01-06T02:07:28.464Z,4.33
2023-01-06T02:10:03.728Z,4.29
2023-01-06T02:12:31.906Z,4.32
2023-01-06T02:14:59.960Z,4.32
2023-01-06T02:17:50.801Z,4.35
2023-01-06T02:20:28.803Z,4.30
2023-01-06T02:23:31.981Z,4.32
2023-01-06T02:26:41.346Z,4.32
2023-01-06T02:29:43.105Z,4.28
2023-01-06T02:32:23.302Z,4.28
2023-01-06T02:34:59.593Z,4.25
2023-01-06T02:37:39.746Z,4.20
2023-01-06T02:40:22.148Z,4.22
2023-01-06T02:42:52.967Z,4.26
2023-01-06T02:45:24.099Z,4.25
2023-01-06T02:47:59.272Z,4.29
2023-01-06T02:50:33.980Z,4.30
2023-01-06T02:53:07.753Z,4.32
2023-01-06T02:55:38.134Z,4.35
2023-01-06T02:58:08.143Z,4.33
2023-01-06T03:00:37.710Z,4.40
2023-01-06T03:03:11.144Z,4.40
2023-01-06T03:05:39.466Z,4.45
2023-01-06T03:08:10.177Z,4.45
2023-01-06T03:10:39.195Z,4.46
2023-01-06T03:13:12.032Z,4.47
2023-01-06T03:15:40.215Z,4.47
2023-01-06T03:18:09.640Z,4.47
2023-01-06T03:20:37.725Z,4.52
2023-01-06T03:23:06.149Z,4.53
2023-01-06T03:25:34.216Z,4.54
2023-01-06T03:28:02.338Z,4.57
2023-01-06T03:30:35.217Z,4.59
2023-01-06T03:33:08.399Z,4.59
2023-01-06T03:35:57.592Z,4.60
2023-01-06T03:38:33.409Z,4.59
2023-01-06T03:41:06.384Z,4.61
2023-01-06T03:43:37.933Z,4.61
2023-01-06T03:46:18.390Z,4.64
2023-01-06T03:48:54.284Z,4.64
2023-01-06T03:51:32.322Z,4.64
2023-01-06T03:54:04.892Z,4.67
2023-01-06T03:56:37.592Z,4.64
2023-01-06T03:59:07.893Z,4.70
2023-01-06T04:01:36.333Z,4.68
2023-01-06T04:04:04.727Z,4.73
2023-01-06T04:06:34.176Z,4.74
2023-01-06T04:09:02.253Z,4.73
2023-01-06T04:11:47.704Z,4.76
2023-01-06T04:14:15.680Z,4.78
2023-01-06T04:16:43.660Z,4.80
2023-01-06T04:19:11.814Z,4.78
2023-01-06T04:21:41.187Z,4.81
2023-01-06T04:24:09.300Z,4.83
2023-01-06T04:26:37.413Z,4.84
2023-01-06T04:29:05.822Z,4.85
2023-01-06T04:31:35.507Z,4.85
2023-01-06T04:34:04.989Z,4.88
2023-01-06T04:36:33.075Z,4.88
2023-01-06T04:39:02.423Z,4.87
2023-01-06T04:41:32.165Z,4.91
2023-01-06T04:44:00.254Z,4.91
2023-01-06T04:46:28.361Z,4.92
2023-01-06T04:48:56.751Z,4.91
2023-01-06T04:51:24.763Z,4.94
2023-01-06T04:53:52.798Z,4.95
2023-01-06T04:56:22.254Z,4.97
2023-01-06T04:58:50.261Z,4.95
2023-01-06T05:01:18.382Z,4.97
2023-01-06T05:03:46.410Z,4.97
2023-01-06T05:06:16.097Z,4.98
2023-01-06T05:08:44.931Z,5.01
2023-01-06T05:11:15.294Z,5.03
2023-01-06T05:13:44.892Z,5.03
2023-01-06T05:16:17.274Z,5.05
2023-01-06T05:18:45.473Z,5.11
2023-01-06T05:21:13.798Z,5.12
2023-01-06T05:23:41.869Z,5.11
2023-01-06T05:26:11.385Z,5.14
2023-01-06T05:28:39.443Z,5.14
2023-01-06T05:31:10.529Z,5.15
2023-01-06T05:33:38.789Z,5.15
2023-01-06T05:36:09.197Z,5.15
2023-01-06T05:38:37.469Z,5.16
2023-01-06T05:41:05.755Z,5.19
2023-01-06T05:43:34.999Z,5.18
2023-01-06T05:46:06.358Z,5.21
2023-01-06T05:48:36.197Z,5.22
2023-01-06T05:51:04.508Z,5.22
2023-01-06T05:53:33.734Z,5.19
2023-01-06T05:56:02.425Z,5.24
2023-01-06T05:58:32.979Z,5.26
2023-01-06T06:01:01.495Z,5.24
2023-01-06T06:03:29.623Z,5.52
2023-01-06T06:06:03.200Z,6.03
2023-01-06T06:08:31.218Z,6.38
2023-01-06T06:11:03.283Z,6.44
2023-01-06T06:13:33.509Z,6.45
2023-01-06T06:16:06.343Z,6.55
2023-01-06T06:18:34.584Z,6.63
2023-01-06T06:21:04.849Z,6.56
2023-01-06T06:23:34.836Z,6.50
2023-01-06T06:26:03.154Z,6.59
2023-01-06T06:28:31.252Z,6.71
2023-01-06T06:31:04.820Z,6.68
2023-01-06T06:33:33.388Z,6.65
2023-01-06T06:36:02.333Z,6.46
2023-01-06T06:38:31.737Z,6.14
2023-01-06T06:40:59.813Z,5.98
2023-01-06T06:43:28.209Z,5.89
2023-01-06T06:45:56.256Z,5.80
2023-01-06T06:48:24.233Z,5.71
2023-01-06T06:50:58.477Z,5.65
2023-01-06T06:53:26.829Z,5.66
2023-01-06T06:55:56.569Z,5.62
2023-01-06T06:58:25.418Z,5.60
2023-01-06T07:00:53.728Z,5.60
2023-01-06T07:03:22.913Z,5.62
2023-01-06T07:05:51.910Z,5.63
2023-01-06T07:08:20.276Z,5.60
2023-01-06T07:10:48.292Z,5.65
2023-01-06T07:13:17.614Z,5.65
2023-01-06T07:15:45.926Z,5.65
2023-01-06T07:18:13.925Z,5.67
2023-01-06T07:20:41.939Z,5.67
2023-01-06T07:23:09.944Z,5.71
2023-01-06T07:25:38.120Z,5.74
2023-01-06T07:28:07.190Z,5.78
2023-01-06T07:30:37.440Z,5.82
2023-01-06T07:33:05.712Z,5.86
2023-01-06T07:35:33.692Z,5.87
2023-01-06T07:38:05.478Z,5.89
2023-01-06T07:40:34.125Z,5.93
2023-01-06T07:43:05.316Z,5.95
2023-01-06T07:45:33.536Z,5.95
2023-01-06T07:48:03.182Z,6.00
2023-01-06T07:50:31.991Z,6.03
2023-01-06T07:53:00.737Z,6.08
2023-01-06T07:55:28.922Z,6.07
2023-01-06T07:57:57.219Z,6.11
2023-01-06T08:00:25.290Z,6.11
2023-01-06T08:02:53.507Z,6.17
2023-01-06T08:05:22.838Z,6.18
2023-01-06T08:07:50.855Z,6.22
2023-01-06T08:10:18.922Z,6.25
2023-01-06T08:12:47.038Z,6.26
2023-01-06T08:15:15.010Z,6.31
2023-01-06T08:17:43.133Z,6.36
2023-01-06T08:20:11.372Z,6.35
2023-01-06T08:22:40.713Z,6.36
2023-01-06T08:25:09.687Z,6.39
2023-01-06T08:27:37.754Z,6.45
2023-01-06T08:30:07.032Z,6.48
2023-01-06T08:32:35.027Z,6.50
2023-01-06T08:35:03.400Z,6.52
2023-01-06T08:37:31.496Z,6.55
2023-01-06T08:40:00.995Z,6.59
2023-01-06T08:42:29.171Z,6.62
2023-01-06T08:44:57.307Z,6.65
2023-01-06T08:47:25.298Z,6.66
2023-01-06T08:49:53.231Z,6.71
2023-01-06T08:52:21.305Z,6.75
2023-01-06T08:54:49.363Z,6.76
2023-01-06T08:57:18.663Z,6.76
2023-01-06T08:59:46.651Z,6.79
2023-01-06T09:02:14.648Z,6.79
2023-01-06T09:04:42.738Z,6.84
2023-01-06T09:07:10.892Z,6.86
2023-01-06T09:09:38.940Z,6.89
2023-01-06T09:12:08.119Z,6.92
2023-01-06T09:14:37.516Z,6.93
2023-01-06T09:17:05.517Z,6.97
2023-01-06T09:19:33.539Z,6.99
2023-01-06T09:22:01.470Z,6.99
2023-01-06T09:24:29.523Z,7.03
2023-01-06T09:26:57.482Z,7.05
2023-01-06T09:29:25.954Z,7.10
2023-01-06T09:31:55.624Z,7.11
2023-01-06T09:34:23.705Z,7.17
2023-01-06T09:36:51.776Z,7.20
2023-01-06T09:39:20.227Z,7.25
2023-01-06T09:42:22.130Z,7.27
2023-01-06T09:44:53.814Z,7.31
2023-01-06T09:47:26.358Z,7.35
2023-01-06T09:49:58.318Z,7.40
2023-01-06T09:52:30.200Z,7.44
2023-01-06T09:55:01.318Z,7.47
2023-01-06T09:57:33.211Z,7.87
2023-01-06T10:00:02.730Z,8.19
2023-01-06T10:02:36.156Z,8.33
2023-01-06T10:05:04.583Z,8.40
2023-01-06T10:07:39.423Z,8.20
2023-01-06T10:10:17.499Z,8.10
2023-01-06T10:12:54.326Z,8.06
2023-01-06T10:15:27.807Z,8.09
2023-01-06T10:18:07.951Z,8.13
2023-01-06T10:20:52.956Z,8.20
2023-01-06T10:23:52.433Z,8.24
2023-01-06T10:26:28.458Z,8.29
2023-01-06T10:28:58.973Z,8.29
2023-01-06T10:31:33.029Z,8.30
2023-01-06T10:34:03.126Z,8.37
2023-01-06T10:36:33.034Z,8.42
2023-01-06T10:39:02.350Z,8.44
2023-01-06T10:41:41.459Z,8.52
2023-01-06T10:44:10.440Z,8.57
2023-01-06T10:46:38.882Z,8.58
2023-01-06T10:49:15.578Z,8.64
2023-01-06T10:51:45.666Z,8.64
2023-01-06T10:54:15.663Z,8.64
2023-01-06T10:56:46.790Z,8.61
2023-01-06T10:59:14.974Z,8.64
2023-01-06T11:01:51.030Z,8.65
2023-01-06T11:04:21.537Z,8.68
2023-01-06T11:06:55.004Z,8.69
2023-01-06T11:09:27.499Z,8.68
2023-01-06T11:11:57.116Z,8.69
2023-01-06T11:14:27.827Z,8.68
2023-01-06T11:16:58.417Z,8.65
2023-01-06T11:19:35.555Z,8.67
2023-01-06T11:22:04.247Z,8.68
2023-01-06T11:24:32.726Z,8.68
2023-01-06T11:27:03.709Z,8.67
2023-01-06T11:29:34.539Z,8.65
2023-01-06T11:32:05.174Z,8.71
2023-01-06T11:34:34.865Z,8.72
2023-01-06T11:37:03.302Z,8.71
2023-01-06T11:39:34.312Z,8.72
2023-01-06T11:42:13.292Z,8.73
2023-01-06T11:44:41.980Z,8.75
2023-01-06T11:47:14.201Z,8.79
2023-01-06T11:49:44.289Z,8.83
2023-01-06T11:52:21.836Z,8.86
2023-01-06T11:54:59.669Z,8.92
2023-01-06T11:57:32.285Z,8.98
2023-01-06T12:00:07.205Z,9.03
2023-01-06T12:02:42.853Z,9.12
2023-01-06T12:05:19.472Z,9.16
2023-01-06T12:07:49.424Z,9.20
2023-01-06T12:10:21.206Z,9.26
2023-01-06T12:12:49.742Z,9.29
2023-01-06T12:15:18.748Z,9.33
2023-01-06T12:17:51.186Z,9.34
2023-01-06T12:20:20.836Z,9.46
2023-01-06T12:22:50.640Z,9.58
2023-01-06T12:25:21.068Z,9.67
2023-01-06T12:27:53.268Z,9.78
2023-01-06T12:30:27.533Z,9.85
2023-01-06T12:32:57.713Z,9.94
2023-01-06T12:35:30.259Z,9.95
2023-01-06T12:38:02.055Z,10.03
2023-01-06T12:40:33.709Z,10.05
2023-01-06T12:43:06.037Z,10.01
2023-01-06T12:45:36.381Z,9.98
2023-01-06T12:48:08.637Z,9.97
2023-01-06T12:50:41.292Z,9.98
2023-01-06T12:53:20.231Z,10.02
2023-01-06T12:56:00.117Z,10.02
2023-01-06T12:58:36.187Z,10.03
2023-01-06T13:01:08.682Z,10.08
2023-01-06T13:03:53.988Z,10.08
2023-01-06T13:06:31.383Z,10.13
2023-01-06T13:09:10.296Z,10.18
2023-01-06T13:11:52.034Z,10.20
2023-01-06T13:14:25.349Z,10.26
2023-01-06T13:16:57.652Z,10.27
2023-01-06T13:19:30.432Z,10.33
2023-01-06T13:22:01.427Z,10.34
2023-01-06T13:24:57.229Z,10.34
2023-01-06T13:27:34.808Z,10.39
2023-01-06T13:30:13.780Z,10.46
2023-01-06T13:32:51.110Z,10.47
2023-01-06T13:35:33.423Z,10.50
2023-01-06T13:38:09.399Z,10.49
2023-01-06T13:40:39.644Z,10.47
2023-01-06T13:43:11.897Z,10.47
2023-01-06T13:45:42.238Z,10.47
2023-01-06T13:48:12.382Z,10.49
2023-01-06T13:50:40.628Z,10.50
2023-01-06T13:53:16.516Z,10.50
2023-01-06T13:55:44.660Z,10.52
2023-01-06T13:58:35.058Z,10.53
2023-01-06T14:01:07.875Z,10.52
2023-01-06T14:03:36.691Z,10.53
2023-01-06T14:06:05.277Z,10.53
2023-01-06T14:08:38.782Z,10.55
2023-01-06T14:11:21.215Z,10.47
2023-01-06T14:13:51.925Z,10.42
2023-01-06T14:16:20.181Z,10.33
2023-01-06T14:18:51.742Z,10.23
2023-01-06T14:21:24.635Z,10.18
2023-01-06T14:24:00.412Z,10.05
2023-01-06T14:26:58.300Z,10.01
2023-01-06T14:30:06.827Z,9.98
2023-01-06T14:33:11.600Z,9.94
2023-01-06T14:35:44.105Z,9.91
2023-01-06T14:40:54.304Z,9.88
2023-01-06T14:43:48.246Z,9.87
2023-01-06T14:46:19.253Z,9.82
2023-01-06T14:48:52.999Z,9.84
2023-01-06T14:51:23.188Z,9.79
2023-01-06T14:54:04.453Z,9.81
2023-01-06T14:56:34.530Z,9.81
2023-01-06T14:59:10.607Z,9.85
2023-01-06T15:01:42.594Z,9.92
2023-01-06T15:04:26.361Z,9.98
2023-01-06T15:07:03.484Z,9.98
2023-01-06T15:09:32.610Z,10.02
2023-01-06T15:12:04.781Z,9.97
2023-01-06T15:14:34.852Z,9.91
2023-01-06T15:17:06.340Z,9.82
2023-01-06T15:19:36.216Z,9.75
2023-01-06T15:22:08.805Z,9.71
2023-01-06T15:24:39.873Z,9.67
2023-01-06T15:27:13.070Z,9.62
2023-01-06T15:29:50.560Z,9.57
2023-01-06T15:32:23.855Z,9.58
2023-01-06T15:34:52.932Z,9.57
2023-01-06T15:37:25.320Z,9.60
2023-01-06T15:39:54.275Z,9.58
2023-01-06T15:42:29.526Z,9.60
2023-01-06T15:44:58.788Z,9.58
2023-01-06T15:47:36.173Z,9.60
2023-01-06T15:50:09.730Z,9.58
2023-01-06T15:52:40.910Z,9.54
2023-01-06T15:55:21.666Z,9.52
2023-01-06T15:57:56.838Z,9.51
2023-01-06T16:00:28.463Z,9.52
2023-01-06T16:02:56.888Z,9.54
2023-01-06T16:05:42.288Z,9.55
2023-01-06T16:08:21.349Z,9.54
2023-01-06T16:10:49.709Z,9.51
2023-01-06T16:13:35.282Z,9.51
2023-01-06T16:16:09.835Z,9.44
2023-01-06T16:18:38.862Z,9.44
2023-01-06T16:21:17.799Z,9.43
2023-01-06T16:23:54.254Z,9.39
2023-01-06T16:26:23.941Z,9.33
2023-01-06T16:28:55.073Z,9.27
2023-01-06T16:31:31.914Z,9.20
2023-01-06T16:34:16.885Z,9.16
2023-01-06T16:36:45.877Z,9.15
2023-01-06T16:39:15.590Z,9.06
2023-01-06T16:42:34.196Z,9.03
2023-01-06T16:45:10.079Z,8.95
2023-01-06T16:47:39.727Z,8.90
2023-01-06T16:50:22.714Z,8.86
2023-01-06T16:53:10.277Z,8.85
2023-01-06T16:55:40.142Z,8.79
2023-01-06T16:58:15.022Z,8.76
2023-01-06T17:00:51.236Z,8.76
2023-01-06T17:03:21.876Z,8.73
2023-01-06T17:05:52.116Z,8.75
2023-01-06T17:08:26.633Z,8.68
2023-01-06T17:10:54.958Z,8.67
2023-01-06T17:13:46.092Z,8.65
2023-01-06T17:16:18.136Z,8.62
2023-01-06T17:18:51.010Z,8.58
2023-01-06T17:21:21.216Z,8.55
2023-01-06T17:23:52.105Z,8.52
2023-01-06T17:26:22.600Z,8.50
2023-01-06T17:28:52.882Z,8.41
2023-01-06T17:31:30.131Z,8.42
2023-01-06T17:34:12.155Z,8.42
2023-01-06T17:36:42.276Z,8.37
2023-01-06T17:39:21.154Z,8.34
2023-01-06T17:41:49.408Z,8.30
2023-01-06T17:44:20.536Z,8.26
2023-01-06T17:46:50.893Z,8.23
2023-01-06T17:49:35.376Z,8.23
2023-01-06T17:52:19.584Z,8.23
2023-01-06T17:55:14.796Z,8.19
2023-01-06T17:57:47.208Z,8.19
2023-01-06T18:00:24.289Z,8.21
2023-01-06T18:02:58.367Z,8.21
2023-01-06T18:06:06.184Z,8.24
2023-01-06T18:08:36.776Z,8.23
2023-01-06T18:11:26.421Z,8.21
2023-01-06T18:13:54.786Z,8.23
2023-01-06T18:16:31.470Z,8.27
2023-01-06T18:19:07.824Z,8.23
2023-01-06T18:21:39.465Z,8.20
2023-01-06T18:24:16.516Z,8.16
2023-01-06T18:26:49.419Z,8.16
2023-01-06T18:29:20.747Z,8.11
2023-01-06T18:31:51.114Z,8.11
2023-01-06T18:34:42.307Z,8.09
2023-01-06T18:37:10.357Z,8.09
2023-01-06T18:39:40.945Z,8.10
2023-01-06T18:42:18.842Z,8.11
2023-01-06T18:44:47.749Z,8.11
2023-01-06T18:47:17.916Z,8.11
2023-01-06T18:49:47.824Z,8.14
2023-01-06T18:52:32.473Z,8.16
2023-01-06T18:55:01.147Z,8.17
2023-01-06T18:57:33.123Z,8.13
2023-01-06T19:00:14.059Z,8.13
2023-01-06T19:02:42.406Z,8.09
2023-01-06T19:05:13.459Z,8.06
2023-01-06T19:07:41.953Z,8.04
2023-01-06T19:10:26.764Z,8.00
2023-01-06T19:13:00.296Z,7.96
2023-01-06T19:15:28.564Z,7.94
2023-01-06T19:17:56.974Z,7.86
2023-01-06T19:20:29.037Z,7.81
2023-01-06T19:22:57.772Z,7.76
2023-01-06T19:25:31.431Z,7.72
2023-01-06T19:28:00.129Z,7.68
2023-01-06T19:30:35.354Z,7.63
2023-01-06T19:33:23.968Z,7.63
2023-01-06T19:36:00.073Z,7.58
2023-01-06T19:38:30.635Z,7.55
2023-01-06T19:41:03.275Z,7.59
2023-01-06T19:43:33.853Z,7.59
2023-01-06T19:46:03.982Z,7.61
2023-01-06T19:48:37.976Z,7.62
2023-01-06T19:51:21.988Z,7.68
2023-01-06T19:53:52.826Z,7.65
2023-01-06T19:56:24.049Z,7.63
2023-01-06T19:58:53.617Z,7.68
2023-01-06T20:01:23.421Z,7.72
2023-01-06T20:03:53.812Z,7.78
2023-01-06T20:06:23.619Z,7.81
2023-01-06T20:08:53.537Z,7.83
2023-01-06T20:11:23.059Z,7.83
2023-01-06T20:13:52.271Z,7.85
2023-01-06T20:16:20.438Z,7.81
2023-01-06T20:18:50.603Z,7.81
2023-01-06T20:21:18.696Z,7.79
2023-01-06T20:23:50.127Z,7.75
2023-01-06T20:26:18.217Z,7.78
2023-01-06T20:28:47.915Z,7.72
2023-01-06T20:31:15.990Z,7.71
2023-01-06T20:33:44.067Z,7.78
2023-01-06T20:36:16.812Z,7.79
2023-01-06T20:38:45.032Z,7.83
2023-01-06T20:41:15.796Z,7.82
2023-01-06T20:43:43.820Z,7.81
2023-01-06T20:46:13.012Z,7.81
2023-01-06T20:48:41.628Z,7.81
2023-01-06T20:51:11.628Z,7.78
2023-01-06T20:53:39.625Z,7.81
2023-01-06T20:56:12.099Z,7.78
2023-01-06T20:58:41.595Z,7.78
2023-01-06T21:01:09.712Z,7.73
2023-01-06T21:03:39.263Z,7.73
2023-01-06T21:06:08.843Z,7.68
2023-01-06T21:08:36.911Z,7.71
2023-01-06T21:11:05.242Z,7.69
2023-01-06T21:13:33.328Z,7.68
2023-01-06T21:16:07.449Z,7.65
2023-01-06T21:18:36.856Z,7.65
2023-01-06T21:21:05.755Z,7.62
2023-01-06T21:23:35.429Z,7.59
2023-01-06T21:26:03.468Z,7.59
2023-01-06T21:28:31.867Z,7.59
2023-01-06T21:31:00.017Z,7.55
2023-01-06T21:33:29.801Z,7.58
2023-01-06T21:35:59.413Z,7.54
2023-01-06T21:38:29.179Z,7.50
2023-01-06T21:41:23.772Z,7.45
2023-01-06T21:43:51.505Z,7.44
2023-01-06T21:46:19.707Z,7.40
2023-01-06T21:48:49.574Z,7.38
2023-01-06T21:51:18.621Z,7.32
2023-01-06T21:53:47.522Z,7.28
2023-01-06T21:56:17.325Z,7.25
2023-01-06T21:58:45.627Z,7.23
2023-01-06T22:01:14.186Z,7.21
2023-01-06T22:03:42.800Z,7.23
2023-01-06T22:06:16.281Z,7.15
2023-01-06T22:08:44.525Z,7.14
2023-01-06T22:11:13.208Z,7.11
2023-01-06T22:13:41.821Z,7.07
2023-01-06T22:16:10.319Z,7.03
2023-01-06T22:18:38.461Z,7.01
2023-01-06T22:21:08.441Z,7.03
2023-01-06T22:23:38.254Z,7.00
2023-01-06T22:26:08.750Z,6.99
2023-01-06T22:28:37.203Z,6.97
2023-01-06T22:31:05.650Z,6.97
2023-01-06T22:33:34.091Z,6.97
2023-01-06T22:36:04.153Z,6.97
2023-01-06T22:38:35.004Z,6.97
2023-01-06T22:41:04.948Z,7.03
2023-01-06T22:43:32.986Z,7.05
2023-01-06T22:46:03.585Z,7.03
2023-01-06T22:48:33.075Z,7.01
2023-01-06T22:51:03.578Z,7.03
2023-01-06T22:53:32.853Z,7.01
2023-01-06T22:56:02.991Z,7.01
2023-01-06T22:58:35.250Z,7.03
2023-01-06T23:01:03.550Z,7.00
2023-01-06T23:03:32.061Z,7.00
2023-01-06T23:06:01.962Z,6.97
2023-01-06T23:08:31.206Z,6.96
2023-01-06T23:11:02.259Z,6.96
2023-01-06T23:13:33.769Z,6.94
2023-01-06T23:16:03.527Z,6.90
2023-01-06T23:18:34.039Z,6.87
2023-01-06T23:21:03.582Z,6.87
2023-01-06T23:23:33.108Z,6.86
2023-01-06T23:26:04.993Z,6.84
2023-01-06T23:28:35.206Z,6.86
2023-01-06T23:31:05.141Z,6.87
2023-01-06T23:33:33.644Z,6.86
2023-01-06T23:36:03.066Z,6.82
2023-01-06T23:38:31.487Z,6.84
2023-01-06T23:41:03.743Z,6.83
2023-01-06T23:43:37.253Z,6.80
2023-01-06T23:46:07.544Z,6.80
2023-01-06T23:48:36.875Z,6.80
2023-01-06T23:51:06.152Z,6.83
2023-01-06T23:53:36.191Z,6.82
2023-01-06T23:56:06.608Z,6.80
2023-01-06T23:58:37.529Z,6.79
